Time;durP1;ratioP1;P1;durP2;ratioP2;P2;SDS_P1;SDS_P2;PMS_P1;PMS_P2;Temp;Humidity;BMP_temperature;BMP_pressure;BME280_temperature;BME280_humidity;BME280_pressure;Samples;Min_cycle;Max_cycle;Signal;HPM_P1;HPM_P2
2022/01/25 00:08:41;;;;;;;23.23;22.27;;;;;;;6.62;72.06;102821.13;687086;28;135966;-68
2022/01/25 00:09:18;;;;;;;25.95;24.85;;;;;;;6.62;71.80;102818.44;685813;28;137329;-68
2022/01/25 00:10:13;;;;;;;18.38;17.67;;;;;;;6.57;71.60;102808.00;687544;28;137499;-68
2022/01/25 00:15:41;;;;;;;14.73;14.23;;;;;;;6.64;71.60;102816.50;680987;28;135854;-68
2022/01/25 00:25:45;;;;;;;13.63;13.23;;;;;;;6.71;71.34;102809.78;686812;28;137432;-68
2022/01/25 00:26:18;;;;;;;12.10;11.70;;;;;;;6.68;71.15;102804.63;686617;28;135984;-68
2022/01/25 00:26:47;;;;;;;16.85;16.25;;;;;;;6.69;71.14;102811.69;685261;28;159097;-68
2022/01/25 00:27:14;;;;;;;12.63;12.23;;;;;;;6.65;70.90;102800.28;686816;28;138087;-69
2022/01/25 00:27:47;;;;;;;17.48;16.83;;;;;;;6.67;70.87;102809.09;686802;28;136440;-68
2022/01/25 00:28:20;;;;;;;12.38;11.95;;;;;;;6.67;70.87;102805.56;687037;28;137751;-67
2022/01/25 00:28:46;;;;;;;18.58;17.88;;;;;;;6.66;70.89;102802.03;687289;28;137807;-68
2022/01/25 00:29:11;;;;;;;17.05;16.35;;;;;;;6.64;70.81;102803.94;686327;28;136399;-68
2022/01/25 00:29:47;;;;;;;13.43;12.95;;;;;;;6.65;70.93;102805.66;689487;28;70462;-68
2022/01/25 00:30:41;;;;;;;21.02;20.23;;;;;;;6.65;70.95;102807.50;687206;28;137567;-68
2022/01/25 00:31:10;;;;;;;11.80;11.40;;;;;;;6.63;70.83;102801.34;686033;28;160702;-68
2022/01/25 00:31:32;;;;;;;29.40;28.17;;;;;;;6.62;70.73;102800.50;686761;28;138050;-67
2022/01/25 00:31:53;;;;;;;26.40;25.33;;;;;;;6.61;70.76;102808.66;689079;28;46625;-67
2022/01/25 00:32:16;;;;;;;22.70;21.80;;;;;;;6.63;70.90;102809.41;690922;28;22442;-68
2022/01/25 00:32:38;;;;;;;16.85;16.17;;;;;;;6.63;71.10;102804.03;688936;28;68431;-68
2022/01/25 00:32:59;;;;;;;12.65;12.15;;;;;;;6.62;70.75;102803.19;690331;28;46289;-68
2022/01/25 00:33:20;;;;;;;14.23;13.73;;;;;;;6.63;70.96;102804.03;690944;28;20400;-68
2022/01/25 00:33:44;;;;;;;14.07;13.57;;;;;;;6.63;70.92;102801.34;691732;28;1589;-68
2022/01/25 00:34:07;;;;;;;14.60;14.07;;;;;;;6.64;70.99;102805.75;688151;28;93012;-68
2022/01/25 00:34:28;;;;;;;20.95;20.15;;;;;;;6.63;71.07;102804.03;690678;28;41882;-68
2022/01/25 00:34:49;;;;;;;16.92;16.33;;;;;;;6.62;71.04;102805.88;690743;28;19889;-68
2022/01/25 00:35:10;;;;;;;13.52;13.02;;;;;;;6.63;71.02;102801.34;690792;28;23482;-68
2022/01/25 00:35:32;;;;;;;9.95;9.65;;;;;;;6.62;71.03;102805.88;691194;28;21613;-68
2022/01/25 00:35:53;;;;;;;20.13;19.35;;;;;;;6.61;70.89;102798.75;689729;28;45269;-68
2022/01/25 00:36:16;;;;;;;22.58;21.67;;;;;;;6.61;70.77;102801.44;690907;28;24349;-68
2022/01/25 00:36:37;;;;;;;18.73;18.02;;;;;;;6.60;70.92;102797.06;689180;28;70225;-68
2022/01/25 00:37:00;;;;;;;15.05;14.45;;;;;;;6.59;70.99;102794.47;690290;28;23457;-68
2022/01/25 00:37:22;;;;;;;12.00;11.60;;;;;;;6.58;70.97;102798.09;688647;28;69547;-68
2022/01/25 00:37:43;;;;;;;10.27;9.95;;;;;;;6.59;70.91;102799.84;689948;28;46360;-68
2022/01/25 00:38:04;;;;;;;15.48;14.88;;;;;;;6.58;70.81;102799.00;690981;28;21513;-68
2022/01/25 00:38:25;;;;;;;12.73;12.32;;;;;;;6.58;70.69;102800.78;690748;28;24552;-68
2022/01/25 00:38:48;;;;;;;8.32;8.10;;;;;;;6.58;71.01;102801.69;691024;28;22327;-68
2022/01/25 00:39:09;;;;;;;15.45;14.85;;;;;;;6.58;70.83;102795.44;688959;28;69425;-68
2022/01/25 00:39:30;;;;;;;16.55;15.95;;;;;;;6.60;70.74;102804.22;691132;28;22430;-68
2022/01/25 00:39:51;;;;;;;12.77;12.38;;;;;;;6.58;70.73;102798.09;691307;28;21532;-68
2022/01/25 00:40:12;;;;;;;9.95;9.65;;;;;;;6.55;70.98;102796.50;691254;28;23097;-68
2022/01/25 00:40:34;;;;;;;13.80;13.30;;;;;;;6.57;70.84;102802.63;690956;28;22130;-68
2022/01/25 00:40:55;;;;;;;14.07;13.57;;;;;;;6.56;70.97;102797.34;689563;28;46351;-68
2022/01/25 00:41:17;;;;;;;10.95;10.65;;;;;;;6.57;70.96;102799.94;691108;28;23779;-68
2022/01/25 00:41:38;;;;;;;10.90;10.50;;;;;;;6.54;70.78;102796.59;690173;28;46595;-68
2022/01/25 00:42:00;;;;;;;16.30;15.70;;;;;;;6.57;70.92;102801.78;689568;28;43282;-68
2022/01/25 00:42:21;;;;;;;13.30;12.80;;;;;;;6.57;71.10;102797.25;688977;28;46319;-68
2022/01/25 00:42:43;;;;;;;10.73;10.32;;;;;;;6.58;71.16;102796.31;690718;28;22385;-68
2022/01/25 00:43:04;;;;;;;16.05;15.45;;;;;;;6.58;70.91;102798.09;690973;28;22396;-68
2022/01/25 00:43:27;;;;;;;25.45;24.45;;;;;;;6.56;70.94;102794.66;690475;28;23534;-68
2022/01/25 00:43:48;;;;;;;20.50;19.70;;;;;;;6.55;70.90;102801.88;688524;28;90418;-68
2022/01/25 00:44:11;;;;;;;16.13;15.52;;;;;;;6.57;70.96;102799.09;689607;28;46515;-68
2022/01/25 00:44:37;;;;;;;12.13;11.73;;;;;;;6.57;71.02;102802.63;689460;28;69295;-68
2022/01/25 00:44:59;;;;;;;11.75;11.35;;;;;;;6.58;71.04;102795.44;687703;28;114958;-68
2022/01/25 00:45:21;;;;;;;18.85;18.15;;;;;;;6.60;71.16;102798.88;690057;28;43994;-68
2022/01/25 00:45:42;;;;;;;15.63;15.02;;;;;;;6.59;70.96;102794.47;689508;28;46225;-68
2022/01/25 00:46:07;;;;;;;12.63;12.23;;;;;;;6.58;71.14;102793.63;691197;28;21372;-68
2022/01/25 00:46:29;;;;;;;10.83;10.47;;;;;;;6.58;71.15;102796.31;686630;28;137926;-68
2022/01/25 00:46:50;;;;;;;18.30;17.60;;;;;;;6.56;70.97;102786.63;688470;28;69561;-68
2022/01/25 00:47:11;;;;;;;15.27;14.75;;;;;;;6.57;71.08;102791.88;690837;28;22525;-68
2022/01/25 00:47:32;;;;;;;12.18;11.77;;;;;;;6.59;70.80;102794.47;690536;28;21344;-68
2022/01/25 00:47:54;;;;;;;12.02;11.60;;;;;;;6.58;70.88;102790.94;690861;28;22389;-68
2022/01/25 00:48:19;;;;;;;25.25;24.23;;;;;;;6.58;71.17;102792.75;689923;28;44217;-68
2022/01/25 00:48:44;;;;;;;23.33;22.40;;;;;;;6.58;71.01;102784.69;687589;28;93489;-68
2022/01/25 00:49:05;;;;;;;17.85;17.15;;;;;;;6.59;71.12;102784.59;686887;28;113788;-68
2022/01/25 00:49:29;;;;;;;14.75;14.15;;;;;;;6.58;71.12;102787.38;689989;28;46319;-68
2022/01/25 00:49:52;;;;;;;12.02;11.63;;;;;;;6.58;71.10;102782.00;688390;28;92259;-68
2022/01/25 00:50:15;;;;;;;20.50;19.70;;;;;;;6.58;71.15;102780.19;689027;28;69419;-68
2022/01/25 00:50:40;;;;;;;26.92;25.83;;;;;;;6.58;70.84;102773.94;690017;28;47430;-68
2022/01/25 00:51:17;;;;;;;27.50;26.40;;;;;;;6.57;70.79;102775.78;687592;28;115437;-68
2022/01/25 00:52:05;;;;;;;21.10;20.30;;;;;;;6.57;70.96;102773.09;686887;28;137417;-68
2022/01/25 00:53:57;;;;;;;26.25;25.23;;;;;;;6.58;70.85;102777.50;677479;29;135367;-68
2022/01/25 00:54:26;;;;;;;21.67;20.88;;;;;;;6.57;70.95;102772.25;678344;29;92112;-68
2022/01/25 00:54:50;;;;;;;16.88;16.25;;;;;;;6.57;71.05;102773.09;677255;29;137789;-68
2022/01/25 00:55:12;;;;;;;33.38;31.95;;;;;;;6.57;70.73;102772.25;678981;29;90387;-68
2022/01/25 00:55:34;;;;;;;32.38;31.02;;;;;;;6.56;70.71;102771.38;681286;29;23455;-68
2022/01/25 00:55:55;;;;;;;26.00;24.95;;;;;;;6.56;70.77;102775.88;679617;29;45351;-68
2022/01/25 00:56:17;;;;;;;16.65;16.02;;;;;;;6.55;70.74;102766.09;681069;29;23525;-68
2022/01/25 00:56:40;;;;;;;8.45;8.15;;;;;;;6.54;70.76;102767.94;680430;29;46131;-68
2022/01/25 00:57:01;;;;;;;6.78;6.57;;;;;;;6.55;70.71;102775.03;687174;28;89251;-68
2022/01/25 00:57:25;;;;;;;8.18;7.93;;;;;;;6.53;70.87;102768.88;689536;28;45262;-68
2022/01/25 00:57:46;;;;;;;5.82;5.65;;;;;;;6.54;70.58;102769.75;689237;28;69476;-67
2022/01/25 00:58:07;;;;;;;4.18;4.07;;;;;;;6.53;70.70;102768.88;690675;28;21901;-68
2022/01/25 00:58:28;;;;;;;4.75;4.65;;;;;;;6.55;70.66;102768.78;690552;28;22417;-68
2022/01/25 00:58:49;;;;;;;5.68;5.55;;;;;;;6.55;70.70;102768.78;690719;28;23294;-67
2022/01/25 00:59:13;;;;;;;4.55;4.40;;;;;;;6.52;70.78;102763.59;690021;28;21407;-67
2022/01/25 00:59:35;;;;;;;5.57;5.38;;;;;;;6.52;70.88;102764.50;687724;28;115200;-68
2022/01/25 00:59:56;;;;;;;11.02;10.63;;;;;;;6.52;70.81;102760.91;690816;28;21536;-68
2022/01/25 01:00:18;;;;;;;8.18;7.90;;;;;;;6.52;70.91;102761.81;691237;28;22380;-68
2022/01/25 01:00:39;;;;;;;6.15;5.95;;;;;;;6.53;70.98;102770.72;687088;28;47447;-68
2022/01/25 01:01:00;;;;;;;4.65;4.55;;;;;;;6.53;70.77;102768.03;688374;28;24434;-68
2022/01/25 01:01:22;;;;;;;3.35;3.25;;;;;;;6.52;70.92;102768.97;688248;28;22495;-68
2022/01/25 01:01:44;;;;;;;8.57;8.27;;;;;;;6.52;70.60;102756.44;686653;28;46390;-68
2022/01/25 01:02:08;;;;;;;10.57;10.20;;;;;;;6.50;70.90;102761.03;687806;28;44365;-68
2022/01/25 01:02:29;;;;;;;7.63;7.43;;;;;;;6.52;70.63;102767.19;686560;28;92081;-68
2022/01/25 01:02:50;;;;;;;5.15;5.05;;;;;;;6.47;70.76;102758.53;690771;28;23498;-68
2022/01/25 01:03:12;;;;;;;3.50;3.40;;;;;;;6.51;70.76;102764.59;691242;28;22417;-68
2022/01/25 01:03:33;;;;;;;3.08;2.97;;;;;;;6.48;70.88;102758.44;689820;28;46306;-68
2022/01/25 01:03:54;;;;;;;8.35;8.05;;;;;;;6.51;70.76;102761.91;691012;28;22396;-67
2022/01/25 01:04:16;;;;;;;8.60;8.30;;;;;;;6.51;70.82;102756.53;690944;28;22252;-68
2022/01/25 01:04:41;;;;;;;5.72;5.63;;;;;;;6.52;71.02;102755.56;689956;28;46343;-68
2022/01/25 01:05:03;;;;;;;4.22;4.13;;;;;;;6.51;71.02;102751.16;687731;28;115295;-68
2022/01/25 01:05:24;;;;;;;3.30;3.20;;;;;;;6.54;71.00;102764.41;690177;28;44370;-68
2022/01/25 01:05:47;;;;;;;5.22;5.07;;;;;;;6.52;70.81;102755.56;690166;28;46395;-68
2022/01/25 01:06:08;;;;;;;10.55;10.25;;;;;;;6.49;70.89;102753.97;692548;28;42725;-68
2022/01/25 01:06:29;;;;;;;7.75;7.55;;;;;;;6.54;70.94;102759.88;693590;28;22405;-68
2022/01/25 01:06:51;;;;;;;5.78;5.57;;;;;;;6.56;71.05;102755.25;692293;28;23301;-68
2022/01/25 01:07:15;;;;;;;3.58;3.47;;;;;;;6.56;70.77;102757.09;692494;28;45225;-68
2022/01/25 01:07:40;;;;;;;2.40;2.30;;;;;;;6.56;70.79;102757.94;689767;28;116119;-68
2022/01/25 01:08:02;;;;;;;4.57;4.47;;;;;;;6.55;70.79;102755.34;687927;28;137881;-68
2022/01/25 01:08:23;;;;;;;4.90;4.80;;;;;;;6.56;70.71;102757.94;689958;28;45256;-68
2022/01/25 01:08:45;;;;;;;3.60;3.50;;;;;;;6.56;70.60;102763.31;691120;28;22391;-68
2022/01/25 01:09:07;;;;;;;3.13;3.03;;;;;;;6.56;70.57;102757.09;689459;28;46371;-68
2022/01/25 01:09:31;;;;;;;3.28;3.17;;;;;;;6.57;70.68;102757.00;689908;28;44153;-68
2022/01/25 01:09:54;;;;;;;8.13;7.88;;;;;;;6.55;70.78;102758.03;688461;28;92281;-68
2022/01/25 01:10:19;;;;;;;6.32;6.13;;;;;;;6.56;70.43;102755.25;689475;28;69418;-68
2022/01/25 01:10:41;;;;;;;4.45;4.35;;;;;;;6.54;70.86;102748.28;686878;28;115119;-68
2022/01/25 01:11:07;;;;;;;3.33;3.22;;;;;;;6.58;70.56;102755.16;690104;28;45321;-68
2022/01/25 01:11:36;;;;;;;3.92;3.83;;;;;;;6.56;70.64;102752.56;686621;28;136516;-67
2022/01/25 01:12:01;;;;;;;8.77;8.48;;;;;;;6.57;70.56;102756.13;685426;28;160554;-68
2022/01/25 01:12:45;;;;;;;5.65;5.45;;;;;;;6.55;70.38;102748.19;686041;28;138133;-68
2022/01/25 01:14:05;;;;;;;8.57;8.30;;;;;;;6.55;70.62;102752.66;678964;28;135668;-67
2022/01/25 01:14:48;;;;;;;6.25;6.05;;;;;;;6.55;70.35;102755.34;678963;28;137605;-67
2022/01/25 01:15:20;;;;;;;2.92;2.83;;;;;;;6.53;70.43;102751.91;678032;28;157916;-67
2022/01/25 01:15:52;;;;;;;1.88;1.85;;;;;;;6.54;70.48;102754.50;678618;28;137481;-67
2022/01/25 01:16:38;;;;;;;1.40;1.40;;;;;;;6.54;70.41;102756.34;678903;28;136117;-67
2022/01/25 01:17:21;;;;;;;1.00;1.00;;;;;;;6.52;70.32;102752.88;684211;28;157149;-68
2022/01/25 01:29:22;;;;;;;2.92;2.85;;;;;;;6.53;70.60;102754.59;685250;28;158556;-68
2022/01/25 01:29:54;;;;;;;2.70;2.70;;;;;;;6.52;70.35;102760.91;687027;28;137373;-68
2022/01/25 01:30:30;;;;;;;2.20;2.20;;;;;;;6.53;70.28;102768.03;686815;28;137734;-68
2022/01/25 01:31:01;;;;;;;3.28;3.17;;;;;;;6.53;70.11;102757.28;686331;28;135997;-68
2022/01/25 01:31:31;;;;;;;2.20;2.20;;;;;;;6.51;70.07;102760.06;687150;28;136229;-68
2022/01/25 01:32:05;;;;;;;7.38;7.18;;;;;;;6.52;70.24;102760.91;687530;28;79017;-68
2022/01/25 01:32:58;;;;;;;4.82;4.72;;;;;;;6.52;70.41;102766.28;685840;28;137290;-68
2022/01/25 01:34:37;;;;;;;6.90;6.70;;;;;;;6.51;70.05;102760.06;686631;28;136041;-67
2022/01/25 01:35:35;;;;;;;3.78;3.67;;;;;;;6.49;70.05;102762.00;687043;28;137084;-67
2022/01/25 01:37:51;;;;;;;5.07;4.97;;;;;;;6.49;69.96;102762.00;675868;29;138504;-67
2022/01/25 01:38:37;;;;;;;3.65;3.55;;;;;;;6.50;70.14;102763.72;686777;28;136807;-68
2022/01/25 01:39:26;;;;;;;3.67;3.58;;;;;;;6.49;70.11;102762.84;686445;28;137348;-67
2022/01/25 01:41:46;;;;;;;3.00;2.92;;;;;;;6.51;69.92;102761.91;672660;29;79369;-68
2022/01/25 01:42:46;;;;;;;4.60;4.50;;;;;;;6.50;69.80;102766.41;677603;28;157742;-68
2022/01/25 01:43:18;;;;;;;1.83;1.83;;;;;;;6.48;70.01;102760.28;678638;28;137225;-68
2022/01/25 01:43:40;;;;;;;3.60;3.50;;;;;;;6.47;69.71;102759.41;684204;28;161671;-68
2022/01/25 01:44:04;;;;;;;4.90;4.80;;;;;;;6.47;69.60;102763.91;689947;28;44256;-68
2022/01/25 01:44:27;;;;;;;3.78;3.67;;;;;;;6.44;69.88;102753.38;688564;28;93144;-68
2022/01/25 01:45:06;;;;;;;2.83;2.72;;;;;;;6.46;69.66;102762.22;689177;28;69462;-68
2022/01/25 01:45:46;;;;;;;2.78;2.67;;;;;;;6.47;69.83;102763.91;686610;28;135818;-68
2022/01/25 01:46:27;;;;;;;4.20;4.10;;;;;;;6.46;69.90;102762.22;686262;28;161585;-67
2022/01/25 01:47:03;;;;;;;2.97;2.88;;;;;;;6.47;69.78;102758.53;685942;28;137434;-68
2022/01/25 01:47:35;;;;;;;3.40;3.30;;;;;;;6.45;70.06;102761.31;686416;28;138391;-68
2022/01/25 01:48:02;;;;;;;4.47;4.38;;;;;;;6.46;70.02;102763.06;686558;28;137943;-68
2022/01/25 01:48:31;;;;;;;4.75;4.65;;;;;;;6.47;70.07;102754.06;689270;28;62460;-68
2022/01/25 01:48:55;;;;;;;3.08;2.97;;;;;;;6.47;69.98;102759.41;686996;28;136249;-68
2022/01/25 01:49:16;;;;;;;3.88;3.78;;;;;;;6.49;69.92;102767.38;687778;28;92439;-68
2022/01/25 01:49:41;;;;;;;4.25;4.15;;;;;;;6.49;70.15;102765.53;691043;28;21538;-68
2022/01/25 01:50:09;;;;;;;3.15;3.05;;;;;;;6.50;69.84;102766.41;687603;28;114319;-67
2022/01/25 01:50:34;;;;;;;4.70;4.60;;;;;;;6.46;69.74;102765.75;685884;28;160664;-67
2022/01/25 01:51:01;;;;;;;4.07;3.97;;;;;;;6.48;69.77;102768.31;686319;28;137971;-67
2022/01/25 01:51:28;;;;;;;4.18;4.07;;;;;;;6.48;69.97;102769.19;686952;28;138200;-67
2022/01/25 01:51:49;;;;;;;5.40;5.25;;;;;;;6.47;69.62;102763.91;685512;28;138726;-68
2022/01/25 01:52:21;;;;;;;3.58;3.47;;;;;;;6.46;69.72;102765.75;688981;28;61401;-68
2022/01/25 01:52:43;;;;;;;3.15;3.05;;;;;;;6.46;69.75;102763.06;689789;28;46195;-68
2022/01/25 01:53:06;;;;;;;8.60;8.30;;;;;;;6.45;69.70;102755.97;690981;28;21642;-68
2022/01/25 01:53:28;;;;;;;8.85;8.55;;;;;;;6.46;69.60;102768.44;689058;28;67516;-68
2022/01/25 01:53:50;;;;;;;6.85;6.65;;;;;;;6.47;69.60;102767.47;688700;28;69254;-68
2022/01/25 01:54:13;;;;;;;5.10;4.93;;;;;;;6.46;69.59;102765.75;689967;28;41903;-68
2022/01/25 01:54:34;;;;;;;3.33;3.22;;;;;;;6.44;69.56;102759.63;689534;28;68338;-68
2022/01/25 01:54:55;;;;;;;2.67;2.58;;;;;;;6.46;69.50;102765.75;690961;28;22421;-67
2022/01/25 01:55:17;;;;;;;8.38;8.07;;;;;;;6.46;69.74;102767.56;691058;28;22431;-67
2022/01/25 01:55:39;;;;;;;8.00;7.80;;;;;;;6.44;69.65;102756.06;691210;28;23397;-67
2022/01/25 01:56:00;;;;;;;5.90;5.70;;;;;;;6.45;69.55;102757.78;689787;28;46332;-67
2022/01/25 01:56:22;;;;;;;4.05;3.95;;;;;;;6.45;69.70;102768.53;691373;28;1002;-67
2022/01/25 01:56:44;;;;;;;3.08;2.97;;;;;;;6.45;69.38;102764.00;689770;28;35775;-67
2022/01/25 01:57:06;;;;;;;3.58;3.47;;;;;;;6.45;69.46;102766.69;690895;28;21540;-67
2022/01/25 01:57:28;;;;;;;4.55;4.45;;;;;;;6.45;69.58;102761.31;689660;28;45245;-68
2022/01/25 01:57:49;;;;;;;3.63;3.53;;;;;;;6.45;69.69;102761.31;689841;28;46144;-68
2022/01/25 01:58:10;;;;;;;3.17;3.08;;;;;;;6.46;69.82;102770.25;690820;28;23468;-68
2022/01/25 01:58:31;;;;;;;5.03;4.93;;;;;;;6.47;69.90;102764.78;691224;28;22484;-68
2022/01/25 01:58:55;;;;;;;4.50;4.40;;;;;;;6.47;69.86;102750.50;690859;28;17514;-68
2022/01/25 01:59:18;;;;;;;3.00;2.90;;;;;;;6.49;69.79;102764.69;686151;28;138216;-68
2022/01/25 01:59:39;;;;;;;5.53;5.35;;;;;;;6.48;69.56;102763.81;690372;28;46684;-68
2022/01/25 02:00:00;;;;;;;10.10;9.80;;;;;;;6.47;69.76;102761.22;690810;28;21565;-68
2022/01/25 02:00:27;;;;;;;6.80;6.60;;;;;;;6.49;69.79;102759.31;690537;28;21530;-68
2022/01/25 02:00:48;;;;;;;4.65;4.55;;;;;;;6.46;69.68;102749.63;686382;28;138207;-68
2022/01/25 02:01:14;;;;;;;3.58;3.47;;;;;;;6.49;69.65;102754.81;690433;28;44407;-68
2022/01/25 02:01:37;;;;;;;2.50;2.40;;;;;;;6.48;69.36;102755.75;687713;28;115151;-67
2022/01/25 02:01:58;;;;;;;7.50;7.30;;;;;;;6.48;69.40;102762.97;688230;28;70301;-67
2022/01/25 02:02:20;;;;;;;7.95;7.75;;;;;;;6.49;69.51;102751.28;689541;28;45679;-67
2022/01/25 02:02:42;;;;;;;5.95;5.75;;;;;;;6.51;69.27;102753.84;689918;28;46325;-67
2022/01/25 02:03:05;;;;;;;4.25;4.15;;;;;;;6.48;69.18;102752.22;690713;28;22398;-67
2022/01/25 02:03:26;;;;;;;2.95;2.85;;;;;;;6.46;69.32;102756.84;689299;28;69059;-67
2022/01/25 02:03:47;;;;;;;3.90;3.80;;;;;;;6.47;69.66;102755.84;691070;28;21537;-67
2022/01/25 02:04:09;;;;;;;7.15;6.95;;;;;;;6.46;69.69;102760.38;689869;28;22422;-68
2022/01/25 02:04:31;;;;;;;3.08;2.97;;;;;;;6.47;69.51;102761.22;688798;28;67478;-68
2022/01/25 02:04:52;;;;;;;2.38;2.38;;;;;;;6.45;69.57;102755.09;689946;28;44414;-68
2022/01/25 02:05:14;;;;;;;1.83;1.83;;;;;;;6.45;69.44;102760.47;691463;28;1304;-68
2022/01/25 02:05:35;;;;;;;1.50;1.50;;;;;;;6.45;69.68;102755.97;690906;28;22410;-68
2022/01/25 02:05:57;;;;;;;1.50;1.50;;;;;;;6.43;69.40;102755.22;689420;28;46436;-67
2022/01/25 02:06:18;;;;;;;2.00;2.00;;;;;;;6.44;69.63;102750.69;689705;28;46329;-68
2022/01/25 02:06:40;;;;;;;1.67;1.67;;;;;;;6.45;69.48;102755.09;690544;28;23508;-67
2022/01/25 02:07:01;;;;;;;1.40;1.40;;;;;;;6.43;69.45;102757.03;690680;28;23484;-67
2022/01/25 02:07:23;;;;;;;6.50;6.30;;;;;;;6.44;69.43;102754.25;690548;28;22405;-68
2022/01/25 02:07:44;;;;;;;7.60;7.40;;;;;;;6.43;69.66;102754.34;690111;28;46343;-68
2022/01/25 02:08:05;;;;;;;3.83;3.72;;;;;;;6.41;69.69;102748.19;690865;28;22414;-68
2022/01/25 02:08:27;;;;;;;2.95;2.85;;;;;;;6.43;69.79;102754.34;691832;28;1351;-68
2022/01/25 02:08:50;;;;;;;2.05;2.05;;;;;;;6.43;69.81;102748.97;689653;28;67521;-68
2022/01/25 02:09:11;;;;;;;2.35;2.25;;;;;;;6.39;69.39;102747.44;689915;28;30428;-68
2022/01/25 02:09:32;;;;;;;3.97;3.88;;;;;;;6.42;69.60;102753.47;691114;28;22410;-67
2022/01/25 02:09:53;;;;;;;5.57;5.38;;;;;;;6.43;69.69;102751.66;690349;28;46449;-68
2022/01/25 02:10:14;;;;;;;4.35;4.25;;;;;;;6.40;69.36;102747.34;690891;28;23925;-68
2022/01/25 02:10:37;;;;;;;4.10;4.00;;;;;;;6.41;69.55;102751.78;690848;28;23313;-68
2022/01/25 02:10:58;;;;;;;11.77;11.38;;;;;;;6.42;69.72;102748.09;689950;28;46345;-68
2022/01/25 02:11:19;;;;;;;11.73;11.32;;;;;;;6.42;69.49;102740.06;691379;28;18722;-68
2022/01/25 02:11:41;;;;;;;8.27;8.05;;;;;;;6.44;69.55;102748.00;689141;28;46441;-69
2022/01/25 02:12:04;;;;;;;6.45;6.25;;;;;;;6.44;69.61;102750.69;690138;28;47964;-68
2022/01/25 02:12:27;;;;;;;5.18;5.07;;;;;;;6.44;69.50;102748.00;689664;28;44197;-68
2022/01/25 02:12:50;;;;;;;6.50;6.30;;;;;;;6.44;69.68;102751.56;689132;28;69436;-68
2022/01/25 02:13:11;;;;;;;14.95;14.43;;;;;;;6.43;69.63;102740.94;689133;28;69423;-68
2022/01/25 02:13:34;;;;;;;11.85;11.45;;;;;;;6.43;69.51;102744.47;690025;28;45573;-68
2022/01/25 02:13:55;;;;;;;8.95;8.65;;;;;;;6.44;69.61;102745.31;689473;28;46400;-68
2022/01/25 02:14:16;;;;;;;6.22;6.03;;;;;;;6.44;69.57;102746.19;690329;28;22409;-68
2022/01/25 02:14:40;;;;;;;4.28;4.18;;;;;;;6.45;69.69;102741.69;691159;28;22400;-68
2022/01/25 02:15:03;;;;;;;9.32;9.02;;;;;;;6.45;69.71;102742.53;688213;28;92289;-68
2022/01/25 02:15:26;;;;;;;11.82;11.43;;;;;;;6.47;69.76;102754.06;688952;28;38092;-68
2022/01/25 02:15:49;;;;;;;9.15;8.85;;;;;;;6.45;69.76;102744.38;689768;28;67540;-68
2022/01/25 02:16:20;;;;;;;6.22;6.03;;;;;;;6.46;69.58;102749.63;689216;28;68431;-68
2022/01/25 02:16:57;;;;;;;18.25;17.55;;;;;;;6.46;69.54;102738.91;686398;28;137786;-68
2022/01/25 02:17:39;;;;;;;14.18;13.68;;;;;;;6.47;69.52;102743.31;686842;28;138335;-68
2022/01/25 02:22:27;;;;;;;5.47;5.28;;;;;;;6.46;69.31;102732.69;684982;28;157177;-68
2022/01/25 02:22:48;;;;;;;19.67;18.88;;;;;;;6.46;69.29;102736.22;686720;28;135981;-68
2022/01/25 02:23:14;;;;;;;17.58;16.90;;;;;;;6.48;69.41;102744.16;690586;28;23397;-68
2022/01/25 02:23:36;;;;;;;12.95;12.55;;;;;;;6.47;69.55;102732.59;687097;28;137695;-68
2022/01/25 02:23:57;;;;;;;10.75;10.40;;;;;;;6.48;69.51;102739.66;689963;28;45207;-68
2022/01/25 02:24:19;;;;;;;8.43;8.13;;;;;;;6.48;69.14;102739.66;690984;28;21201;-68
2022/01/25 02:24:40;;;;;;;7.53;7.32;;;;;;;6.47;69.46;102737.06;690708;28;22369;-68
2022/01/25 02:25:04;;;;;;;10.82;10.52;;;;;;;6.46;69.11;102732.69;689736;28;46305;-68
2022/01/25 02:25:25;;;;;;;8.93;8.63;;;;;;;6.44;69.24;102739.94;689924;28;30529;-68
2022/01/25 02:25:46;;;;;;;6.57;6.38;;;;;;;6.45;69.31;102737.16;691138;28;21557;-68
2022/01/25 02:26:09;;;;;;;12.07;11.68;;;;;;;6.44;69.42;102735.47;690970;28;21512;-68
2022/01/25 02:26:31;;;;;;;14.00;13.50;;;;;;;6.46;69.31;102735.38;688852;28;68434;-67
2022/01/25 02:26:55;;;;;;;12.32;11.93;;;;;;;6.47;69.28;102737.06;689211;28;44584;-67
2022/01/25 02:27:16;;;;;;;9.30;9.00;;;;;;;6.46;69.26;102733.53;688191;28;90418;-67
2022/01/25 02:27:37;;;;;;;7.88;7.63;;;;;;;6.46;69.44;102733.53;689730;28;46311;-67
2022/01/25 02:27:59;;;;;;;18.20;17.50;;;;;;;6.47;69.20;102739.75;691242;28;12208;-68
2022/01/25 02:28:21;;;;;;;18.75;18.05;;;;;;;6.47;69.40;102732.59;690099;28;46292;-68
2022/01/25 02:28:44;;;;;;;14.73;14.23;;;;;;;6.47;69.23;102732.59;689088;28;44004;-68
2022/01/25 02:29:05;;;;;;;11.98;11.52;;;;;;;6.46;69.34;102741.59;689240;28;69349;-68
2022/01/25 02:29:27;;;;;;;8.07;7.78;;;;;;;6.47;69.58;102739.75;690952;28;21287;-68
2022/01/25 02:29:49;;;;;;;5.38;5.28;;;;;;;6.44;69.25;102730.09;689823;28;47362;-68
2022/01/25 02:30:11;;;;;;;9.23;8.93;;;;;;;6.46;69.47;102733.53;690789;28;23443;-68
2022/01/25 02:30:32;;;;;;;7.53;7.32;;;;;;;6.47;69.48;102734.38;689505;28;46263;-68
2022/01/25 02:30:53;;;;;;;6.47;6.28;;;;;;;6.47;69.42;102732.59;690807;28;23491;-67
2022/01/25 02:31:17;;;;;;;7.38;7.18;;;;;;;6.46;69.57;102730.00;690270;28;46178;-68
2022/01/25 02:31:38;;;;;;;10.02;9.73;;;;;;;6.46;69.55;102724.63;689392;28;67506;-68
2022/01/25 02:31:59;;;;;;;8.38;8.13;;;;;;;6.49;69.53;102737.84;667304;28;15830;-68
2022/01/25 02:32:20;;;;;;;7.97;7.72;;;;;;;6.49;69.32;102735.16;693307;28;23518;-67
2022/01/25 02:32:41;;;;;;;12.20;11.80;;;;;;;6.48;69.28;102726.22;693756;28;22387;-67
2022/01/25 02:33:03;;;;;;;11.73;11.32;;;;;;;6.46;69.46;102727.31;692797;28;45428;-68
2022/01/25 02:33:24;;;;;;;9.60;9.30;;;;;;;6.48;69.31;102730.75;694419;28;2920;-68
2022/01/25 02:33:46;;;;;;;7.28;7.07;;;;;;;6.44;69.44;102724.72;692657;28;22412;-68
2022/01/25 02:34:07;;;;;;;10.77;10.43;;;;;;;6.47;69.27;102729.00;690569;28;22409;-68
2022/01/25 02:34:29;;;;;;;10.30;10.00;;;;;;;6.47;69.42;102729.00;691907;28;1626;-68
2022/01/25 02:34:50;;;;;;;9.32;9.02;;;;;;;6.44;69.44;102718.47;689998;28;45371;-68
2022/01/25 02:35:12;;;;;;;16.70;16.10;;;;;;;6.46;69.23;102730.00;691067;28;22804;-67
2022/01/25 02:35:35;;;;;;;15.98;15.38;;;;;;;6.44;69.46;102727.41;690614;28;13495;-67
2022/01/25 02:35:58;;;;;;;12.38;11.98;;;;;;;6.45;69.30;102730.94;690892;28;22411;-67
2022/01/25 02:36:22;;;;;;;9.27;8.98;;;;;;;6.44;69.58;102727.41;688845;28;69472;-68
2022/01/25 02:36:43;;;;;;;15.25;14.73;;;;;;;6.44;69.30;102723.84;686886;28;113613;-68
2022/01/25 02:37:06;;;;;;;16.92;16.33;;;;;;;6.39;69.26;102716.09;690532;28;23470;-68
2022/01/25 02:37:28;;;;;;;13.75;13.25;;;;;;;6.43;69.47;102730.19;689112;28;69463;-68
2022/01/25 02:37:50;;;;;;;9.77;9.48;;;;;;;6.44;69.38;102731.91;690374;28;22412;-68
2022/01/25 02:38:12;;;;;;;8.80;8.50;;;;;;;6.44;69.64;102729.22;689836;28;45184;-68
2022/01/25 02:38:34;;;;;;;12.15;11.68;;;;;;;6.43;69.40;102731.03;689296;28;69475;-68
2022/01/25 02:38:57;;;;;;;8.70;8.40;;;;;;;6.40;69.58;102725.88;689119;28;45108;-67
2022/01/25 02:39:18;;;;;;;12.27;11.85;;;;;;;6.40;69.65;102719.66;689114;28;69475;-67
2022/01/25 02:39:42;;;;;;;14.88;14.38;;;;;;;6.42;69.39;102729.31;691049;28;21524;-67
2022/01/25 02:40:04;;;;;;;12.30;11.90;;;;;;;6.40;69.53;102722.34;688678;28;92334;-68
2022/01/25 02:40:25;;;;;;;9.52;9.23;;;;;;;6.40;69.70;102725.03;688565;28;69841;-68
2022/01/25 02:40:47;;;;;;;12.45;12.02;;;;;;;6.40;69.55;102727.72;691196;28;23735;-68
2022/01/25 02:41:08;;;;;;;16.30;15.70;;;;;;;6.41;69.73;102729.41;690095;28;46190;-68
2022/01/25 02:41:29;;;;;;;13.18;12.70;;;;;;;6.40;69.62;102725.03;690872;28;22249;-68
2022/01/25 02:41:51;;;;;;;11.07;10.68;;;;;;;6.38;69.63;102721.56;690007;28;21418;-68
2022/01/25 02:42:15;;;;;;;15.27;14.68;;;;;;;6.37;69.80;102720.72;690027;28;23456;-68
2022/01/25 02:42:36;;;;;;;20.55;19.75;;;;;;;6.37;69.90;102725.22;688755;28;91960;-67